Time;durP1;ratioP1;P1;durP2;ratioP2;P2;SDS_P1;SDS_P2;PMS_P1;PMS_P2;Temp;Humidity;BMP_temperature;BMP_pressure;BME280_temperature;BME280_humidity;BME280_pressure;Samples;Min_cycle;Max_cycle;Signal;HPM_P1;HPM_P2
2022/09/07 00:02:01;;;;;;;1.63;1.53;;;17.40;53.80;;;;;;5215196;28;20194;-47
2022/09/07 00:04:31;;;;;;;2.77;1.73;;;17.40;53.80;;;;;;5218703;28;20570;-52
2022/09/07 00:07:02;;;;;;;7.83;2.37;;;17.40;53.80;;;;;;5216839;28;20191;-51
2022/09/07 00:09:32;;;;;;;1.47;1.47;;;17.40;53.80;;;;;;5215299;28;20171;-49
2022/09/07 00:12:03;;;;;;;2.07;1.97;;;17.40;53.70;;;;;;5217281;28;24575;-47
2022/09/07 00:14:34;;;;;;;4.40;2.13;;;17.40;53.60;;;;;;5216200;28;20282;-47
2022/09/07 00:17:04;;;;;;;1.33;1.23;;;17.40;53.60;;;;;;5218681;28;20611;-48
2022/09/07 00:19:35;;;;;;;1.20;1.20;;;17.40;53.60;;;;;;5217452;28;20217;-48
2022/09/07 00:22:05;;;;;;;1.17;1.17;;;17.40;53.80;;;;;;5221115;28;20178;-49
2022/09/07 00:24:36;;;;;;;1.40;1.30;;;17.30;53.90;;;;;;5213884;28;20210;-49
2022/09/07 00:27:07;;;;;;;2.07;1.87;;;17.20;54.00;;;;;;5226533;28;20267;-46
2022/09/07 00:29:37;;;;;;;2.17;1.80;;;17.20;54.00;;;;;;5219790;28;20247;-48
2022/09/07 00:32:08;;;;;;;1.60;1.50;;;17.10;54.30;;;;;;5218072;28;20175;-47
2022/09/07 00:34:39;;;;;;;1.30;1.30;;;17.10;54.40;;;;;;5224159;28;20187;-48
2022/09/07 00:37:09;;;;;;;1.83;1.73;;;17.00;54.60;;;;;;5219615;28;20179;-49
2022/09/07 00:39:40;;;;;;;2.87;1.87;;;17.00;54.80;;;;;;5226829;28;20221;-49
2022/09/07 00:42:10;;;;;;;1.80;1.47;;;16.90;55.00;;;;;;5228761;28;20183;-49
2022/09/07 00:44:41;;;;;;;5.73;1.47;;;16.80;55.10;;;;;;5221932;28;20226;-47
2022/09/07 00:47:18;;;;;;;1.30;1.30;;;16.80;55.30;;;;;;5217840;28;20187;-48
2022/09/07 00:49:53;;;;;;;3.80;1.77;;;16.70;55.40;;;;;;5215911;28;20276;-48
2022/09/07 00:52:26;;;;;;;2.00;1.70;;;16.60;55.60;;;;;;5221141;28;20440;-49
2022/09/07 00:55:02;;;;;;;1.40;1.40;;;16.60;55.60;;;;;;5197554;28;20445;-49
2022/09/07 00:57:33;;;;;;;1.40;1.40;;;16.60;55.90;;;;;;5216125;28;20444;-48
2022/09/07 01:00:05;;;;;;;2.13;2.00;;;16.50;55.80;;;;;;5217506;28;20853;-50
2022/09/07 01:02:35;;;;;;;11.37;2.07;;;16.50;55.80;;;;;;5215438;28;20445;-48
2022/09/07 01:05:14;;;;;;;4.87;1.43;;;16.50;56.00;;;;;;5218464;28;20466;-47
2022/09/07 01:07:45;;;;;;;2.00;1.90;;;16.50;56.00;;;;;;5222503;28;20175;-47
2022/09/07 01:10:16;;;;;;;3.93;1.70;;;16.40;56.30;;;;;;5212260;28;20464;-48
2022/09/07 01:12:47;;;;;;;3.10;1.80;;;16.40;56.30;;;;;;5226892;28;20796;-47
2022/09/07 01:15:19;;;;;;;1.20;1.20;;;16.40;56.40;;;;;;5222152;28;20344;-50
2022/09/07 01:17:59;;;;;;;1.47;1.37;;;16.40;56.30;;;;;;5223745;28;20182;-49
2022/09/07 01:20:39;;;;;;;2.23;1.73;;;16.40;56.30;;;;;;5214634;28;20469;-48
2022/09/07 01:23:28;;;;;;;3.17;1.60;;;16.40;56.40;;;;;;5216866;28;20445;-47
2022/09/07 01:26:17;;;;;;;1.33;1.10;;;16.30;56.50;;;;;;5215211;28;20472;-47
2022/09/07 01:28:56;;;;;;;1.63;1.53;;;16.30;56.60;;;;;;5214768;28;20437;-48
2022/09/07 01:31:55;;;;;;;2.30;1.70;;;16.30;56.80;;;;;;5215526;28;20464;-48
2022/09/07 01:34:26;;;;;;;1.77;1.67;;;16.30;56.80;;;;;;5214451;28;20651;-48
2022/09/07 01:37:03;;;;;;;2.50;1.40;;;16.20;56.90;;;;;;5216957;28;21322;-47
2022/09/07 01:40:00;;;;;;;1.93;1.53;;;16.20;57.00;;;;;;5210676;28;20194;-48
2022/09/07 01:42:37;;;;;;;1.73;1.63;;;16.10;57.20;;;;;;5171251;28;20445;-48
2022/09/07 01:45:12;;;;;;;2.67;1.50;;;16.10;57.40;;;;;;5215448;28;20507;-47
2022/09/07 01:47:47;;;;;;;7.53;1.90;;;16.10;57.50;;;;;;5220494;28;20441;-51
2022/09/07 01:50:32;;;;;;;4.20;1.97;;;16.00;57.60;;;;;;5217797;28;20529;-47
2022/09/07 01:53:24;;;;;;;1.87;1.77;;;16.00;57.90;;;;;;5216922;28;20452;-47
2022/09/07 01:56:12;;;;;;;1.80;1.50;;;16.00;57.90;;;;;;5211401;28;20433;-48
2022/09/07 01:58:54;;;;;;;6.73;1.80;;;15.90;58.00;;;;;;5216475;28;20470;-47
2022/09/07 02:01:43;;;;;;;6.27;1.60;;;15.90;58.10;;;;;;5211430;28;20626;-48
2022/09/07 02:04:19;;;;;;;2.73;1.90;;;15.90;58.30;;;;;;5214499;28;20512;-48
2022/09/07 02:06:56;;;;;;;2.00;1.60;;;15.80;58.40;;;;;;5216477;28;20440;-48
2022/09/07 02:09:48;;;;;;;9.93;1.60;;;15.80;58.50;;;;;;5218680;28;20441;-47
2022/09/07 02:12:29;;;;;;;5.27;2.27;;;15.70;58.60;;;;;;5212153;28;20456;-48
2022/09/07 02:15:06;;;;;;;1.70;1.60;;;15.70;58.80;;;;;;5215080;28;20806;-48
2022/09/07 02:17:44;;;;;;;5.63;1.40;;;15.70;58.90;;;;;;5217651;28;20475;-47
2022/09/07 02:20:25;;;;;;;5.73;1.80;;;15.70;59.00;;;;;;5221183;28;20882;-49
2022/09/07 02:23:01;;;;;;;2.50;1.83;;;15.70;59.10;;;;;;5214808;28;20490;-49
2022/09/07 02:25:36;;;;;;;8.63;1.50;;;15.60;59.10;;;;;;5195397;28;20488;-49
2022/09/07 02:28:11;;;;;;;1.57;1.47;;;15.60;59.30;;;;;;5218954;28;20528;-47
2022/09/07 02:30:42;;;;;;;2.20;2.00;;;15.50;59.40;;;;;;5214349;28;21175;-47
2022/09/07 02:33:13;;;;;;;3.40;2.00;;;15.50;59.50;;;;;;5216794;28;20444;-47
2022/09/07 02:35:45;;;;;;;1.93;1.73;;;15.50;59.60;;;;;;5219649;28;21503;-47
2022/09/07 02:38:16;;;;;;;3.17;2.17;;;15.50;59.70;;;;;;5215514;28;20191;-48
2022/09/07 02:40:54;;;;;;;2.30;1.63;;;15.50;59.90;;;;;;5214196;28;20484;-48
2022/09/07 02:43:26;;;;;;;5.40;1.93;;;15.50;59.80;;;;;;5233078;28;20191;-48
2022/09/07 02:46:08;;;;;;;2.63;1.30;;;15.40;59.90;;;;;;5211885;28;20550;-47
2022/09/07 02:48:48;;;;;;;7.00;2.20;;;15.50;60.00;;;;;;5208787;28;20474;-48
2022/09/07 02:51:39;;;;;;;3.33;1.73;;;15.40;60.00;;;;;;5212220;28;20458;-48
2022/09/07 02:54:40;;;;;;;2.00;1.80;;;15.40;60.10;;;;;;5215456;28;20540;-47
2022/09/07 02:57:29;;;;;;;3.80;1.90;;;15.40;60.20;;;;;;5213690;28;20534;-48
2022/09/07 03:00:16;;;;;;;5.00;2.10;;;15.40;60.40;;;;;;5217287;28;20477;-50
2022/09/07 03:03:24;;;;;;;2.73;2.27;;;15.40;60.60;;;;;;5217171;28;20499;-48
2022/09/07 03:06:01;;;;;;;4.07;2.17;;;15.30;60.70;;;;;;5218970;28;20456;-48
2022/09/07 03:08:43;;;;;;;2.87;1.90;;;15.30;60.90;;;;;;5222079;28;20441;-50
2022/09/07 03:11:15;;;;;;;2.77;2.20;;;15.20;61.00;;;;;;5222225;28;20477;-46
2022/09/07 03:13:46;;;;;;;2.33;2.23;;;15.20;61.20;;;;;;5223564;28;20469;-50
2022/09/07 03:16:16;;;;;;;1.67;1.67;;;15.20;61.20;;;;;;5220331;28;20465;-49
2022/09/07 03:18:47;;;;;;;2.03;1.73;;;15.20;61.40;;;;;;5223314;28;20183;-49
2022/09/07 03:21:18;;;;;;;3.83;2.03;;;15.10;61.60;;;;;;5217671;28;20237;-48
2022/09/07 03:23:48;;;;;;;2.13;1.93;;;15.10;61.70;;;;;;5219324;28;20187;-47
2022/09/07 03:26:26;;;;;;;3.33;2.47;;;15.10;61.90;;;;;;5218088;28;20190;-47
2022/09/07 03:28:56;;;;;;;18.37;2.40;;;15.10;62.10;;;;;;5220394;28;20186;-48
2022/09/07 03:31:27;;;;;;;2.00;1.90;;;15.00;62.20;;;;;;5219699;28;20461;-48
2022/09/07 03:33:58;;;;;;;8.90;2.47;;;15.00;62.50;;;;;;5218025;28;20190;-47
2022/09/07 03:36:29;;;;;;;9.00;2.40;;;14.90;62.60;;;;;;5221470;28;20275;-48
2022/09/07 03:39:01;;;;;;;8.10;2.50;;;14.90;63.50;;;;;;5217811;28;20183;-50
2022/09/07 03:41:32;;;;;;;5.57;1.90;;;14.90;62.80;;;;;;5196100;28;20836;-49
2022/09/07 03:44:03;;;;;;;5.40;2.03;;;14.90;63.00;;;;;;5217440;28;20469;-47
2022/09/07 03:46:34;;;;;;;5.03;2.10;;;14.80;63.00;;;;;;5214872;28;20448;-49
2022/09/07 03:49:05;;;;;;;11.03;3.07;;;14.90;63.20;;;;;;5220639;28;20940;-49
2022/09/07 03:51:36;;;;;;;1.53;1.53;;;14.80;63.20;;;;;;5218431;28;20199;-48
2022/09/07 03:54:07;;;;;;;8.23;2.47;;;14.80;63.20;;;;;;5215905;28;20183;-47
2022/09/07 03:56:37;;;;;;;12.60;2.23;;;14.80;63.50;;;;;;5222528;28;20191;-48
2022/09/07 03:59:08;;;;;;;2.13;2.03;;;14.80;63.70;;;;;;5217306;28;20184;-48
2022/09/07 04:01:39;;;;;;;2.20;2.00;;;14.80;63.60;;;;;;5217619;28;20214;-51
2022/09/07 04:04:09;;;;;;;5.77;1.70;;;14.70;63.80;;;;;;5220356;28;20349;-48
2022/09/07 04:06:40;;;;;;;4.73;2.10;;;14.70;63.90;;;;;;5216834;28;20213;-49
2022/09/07 04:09:13;;;;;;;7.03;2.60;;;14.70;64.10;;;;;;5218689;28;20312;-48
2022/09/07 04:11:43;;;;;;;2.37;2.17;;;14.70;64.20;;;;;;5212834;28;20211;-49
2022/09/07 04:14:14;;;;;;;4.93;1.87;;;14.60;64.30;;;;;;5212510;28;20805;-46
2022/09/07 04:16:45;;;;;;;2.67;2.47;;;14.60;64.50;;;;;;5216518;28;20339;-48
2022/09/07 04:19:16;;;;;;;3.13;2.30;;;14.60;64.50;;;;;;5214108;28;20434;-49
2022/09/07 04:21:47;;;;;;;3.90;2.30;;;14.60;64.60;;;;;;5212500;28;20887;-49
2022/09/07 04:24:18;;;;;;;3.13;1.87;;;14.60;64.50;;;;;;5207730;28;20460;-51
2022/09/07 04:26:48;;;;;;;3.63;2.10;;;14.60;64.60;;;;;;5210999;28;20202;-48
2022/09/07 04:29:19;;;;;;;4.37;2.30;;;14.60;64.80;;;;;;5220911;28;20557;-48
2022/09/07 04:31:50;;;;;;;7.20;2.20;;;14.60;64.90;;;;;;5221554;28;20179;-49
2022/09/07 04:34:20;;;;;;;4.20;2.10;;;14.60;65.70;;;;;;5238470;28;20653;-48
2022/09/07 04:36:51;;;;;;;2.40;1.87;;;14.60;65.10;;;;;;5228950;28;20183;-50
2022/09/07 04:39:21;;;;;;;6.50;2.67;;;14.60;65.30;;;;;;5232820;28;20187;-48
2022/09/07 04:41:52;;;;;;;3.10;2.33;;;14.60;65.30;;;;;;5218418;28;20903;-48
2022/09/07 04:44:22;;;;;;;4.83;1.93;;;14.60;65.40;;;;;;5216314;28;20211;-49
2022/09/07 04:46:53;;;;;;;5.50;2.33;;;14.60;65.40;;;;;;5227865;28;20200;-48
2022/09/07 04:49:24;;;;;;;3.50;2.43;;;14.60;65.30;;;;;;5223360;28;20590;-47
2022/09/07 04:51:54;;;;;;;6.20;2.13;;;14.70;65.50;;;;;;5221598;28;21012;-48
2022/09/07 04:54:25;;;;;;;2.80;2.43;;;14.70;65.60;;;;;;5228853;28;20206;-48
2022/09/07 04:56:59;;;;;;;3.50;3.27;;;14.70;65.40;;;;;;5226702;28;20233;-53
2022/09/07 04:59:29;;;;;;;5.83;2.40;;;14.70;65.50;;;;;;5228314;28;20257;-47
2022/09/07 05:02:00;;;;;;;3.50;2.40;;;14.80;65.50;;;;;;5216165;28;20875;-47
2022/09/07 05:04:33;;;;;;;3.20;2.03;;;14.80;65.40;;;;;;5227071;28;20224;-47
2022/09/07 05:07:04;;;;;;;3.20;2.30;;;14.80;65.40;;;;;;5215503;28;20579;-48
2022/09/07 05:09:34;;;;;;;5.50;2.43;;;14.90;65.50;;;;;;5221846;28;20482;-47
2022/09/07 05:12:05;;;;;;;4.00;2.20;;;14.90;65.60;;;;;;5226816;28;20194;-48
2022/09/07 05:14:36;;;;;;;5.10;2.30;;;14.90;65.60;;;;;;5219250;28;20648;-49
2022/09/07 05:17:06;;;;;;;3.07;2.53;;;14.90;65.50;;;;;;5217170;28;20209;-49
2022/09/07 05:19:37;;;;;;;2.60;2.40;;;15.00;65.50;;;;;;5220069;28;20293;-50
2022/09/07 05:22:07;;;;;;;13.00;2.33;;;15.00;65.60;;;;;;5224962;28;20197;-47
2022/09/07 05:24:38;;;;;;;3.20;2.90;;;15.10;65.60;;;;;;5225212;28;20211;-51
2022/09/07 05:27:08;;;;;;;2.23;2.10;;;15.10;65.50;;;;;;5222857;28;20183;-48
2022/09/07 05:29:39;;;;;;;8.13;2.50;;;15.20;65.60;;;;;;5223654;28;20286;-48
2022/09/07 05:32:10;;;;;;;3.00;2.70;;;15.20;65.40;;;;;;5217646;28;20191;-50
2022/09/07 05:34:40;;;;;;;6.47;2.53;;;15.30;65.40;;;;;;5223240;28;20175;-49
2022/09/07 05:37:11;;;;;;;10.23;3.13;;;15.40;66.60;;;;;;5213917;28;20183;-47
2022/09/07 05:39:41;;;;;;;3.90;2.57;;;15.40;65.40;;;;;;5217149;28;20277;-50
2022/09/07 05:42:12;;;;;;;2.57;2.33;;;15.50;65.60;;;;;;5216239;28;20290;-47
2022/09/07 05:44:43;;;;;;;2.70;2.50;;;15.50;65.10;;;;;;5211525;28;20203;-52
2022/09/07 05:47:14;;;;;;;9.60;2.83;;;15.50;65.60;;;;;;5213276;28;20183;-48
2022/09/07 05:49:44;;;;;;;7.37;2.40;;;15.60;65.10;;;;;;5211047;28;20196;-48
2022/09/07 05:52:15;;;;;;;4.30;3.33;;;15.90;64.80;;;;;;5214667;28;20190;-47
2022/09/07 05:54:46;;;;;;;3.10;2.73;;;16.30;63.80;;;;;;5221947;28;20221;-48
2022/09/07 05:57:16;;;;;;;15.93;2.67;;;16.70;62.20;;;;;;5221785;28;20627;-49
2022/09/07 05:59:47;;;;;;;3.60;3.00;;;17.60;60.80;;;;;;5220425;28;20215;-49
2022/09/07 06:02:19;;;;;;;3.70;2.60;;;19.50;57.60;;;;;;5212888;28;20297;-49
2022/09/07 06:04:49;;;;;;;4.30;2.53;;;21.20;53.10;;;;;;5226269;28;20245;-48
2022/09/07 06:07:20;;;;;;;9.57;2.80;;;22.40;50.60;;;;;;5215441;28;20466;-50
2022/09/07 06:09:50;;;;;;;3.47;2.60;;;23.40;48.20;;;;;;5208707;28;20626;-48
2022/09/07 06:12:21;;;;;;;2.77;2.20;;;24.20;47.10;;;;;;5225970;28;20558;-47
2022/09/07 06:14:51;;;;;;;5.03;3.13;;;24.50;45.30;;;;;;5220804;28;20695;-49
2022/09/07 06:17:22;;;;;;;4.70;2.77;;;24.60;45.20;;;;;;5217213;28;20240;-51
2022/09/07 06:19:53;;;;;;;5.73;3.17;;;25.10;44.40;;;;;;5220964;28;20298;-50
2022/09/07 06:22:24;;;;;;;6.27;2.90;;;25.30;43.60;;;;;;5218471;28;20182;-50
2022/09/07 06:24:54;;;;;;;3.37;3.10;;;25.00;44.00;;;;;;5224923;28;20614;-49
2022/09/07 06:27:25;;;;;;;4.40;2.77;;;25.20;43.90;;;;;;5213031;28;20241;-48
2022/09/07 06:29:56;;;;;;;3.93;3.00;;;25.40;43.40;;;;;;5209896;28;20202;-49
2022/09/07 06:32:27;;;;;;;2.70;2.50;;;25.90;42.60;;;;;;5212429;28;20723;-50
2022/09/07 06:34:57;;;;;;;4.07;3.33;;;26.10;42.50;;;;;;5218141;28;20563;-49
2022/09/07 06:37:28;;;;;;;4.60;2.50;;;26.40;41.70;;;;;;5218618;28;20206;-53
2022/09/07 06:39:59;;;;;;;3.30;2.43;;;26.60;41.30;;;;;;5213056;28;20674;-51
2022/09/07 06:42:29;;;;;;;6.30;2.90;;;26.10;41.50;;;;;;5214912;28;20868;-50
2022/09/07 06:45:00;;;;;;;4.00;2.87;;;25.60;41.80;;;;;;5221260;28;21973;-49
2022/09/07 06:47:30;;;;;;;8.73;3.60;;;25.40;42.70;;;;;;5223433;28;20186;-51
2022/09/07 06:50:01;;;;;;;11.10;2.77;;;25.10;43.20;;;;;;5221727;28;20290;-50
2022/09/07 06:52:36;;;;;;;8.47;3.60;;;24.50;44.10;;;;;;5220602;28;20917;-50
2022/09/07 06:55:07;;;;;;;4.27;3.40;;;23.30;46.20;;;;;;5220704;28;20178;-49
2022/09/07 06:57:38;;;;;;;2.93;2.73;;;22.70;47.80;;;;;;5217386;28;20500;-50
2022/09/07 07:00:09;;;;;;;3.37;2.80;;;23.00;47.70;;;;;;5223388;28;20465;-50
2022/09/07 07:02:39;;;;;;;10.37;3.73;;;22.90;48.30;;;;;;5222198;28;20183;-49
2022/09/07 07:05:10;;;;;;;3.70;3.33;;;23.40;47.40;;;;;;5224813;28;20487;-52
2022/09/07 07:07:41;;;;;;;10.00;3.30;;;23.60;47.10;;;;;;5225247;28;20210;-49
2022/09/07 07:10:11;;;;;;;6.50;3.73;;;23.80;46.80;;;;;;5221217;28;20209;-51
2022/09/07 07:12:42;;;;;;;5.13;2.70;;;24.30;46.20;;;;;;5217189;28;20625;-49
2022/09/07 07:15:13;;;;;;;4.00;3.63;;;24.50;45.80;;;;;;5223271;28;20693;-48
2022/09/07 07:17:43;;;;;;;7.73;3.67;;;24.10;46.20;;;;;;5221026;28;20214;-48
2022/09/07 07:20:14;;;;;;;6.17;3.60;;;23.70;46.90;;;;;;5224309;28;20653;-51
2022/09/07 07:22:49;;;;;;;17.33;3.40;;;24.00;47.20;;;;;;5225798;28;20564;-50
2022/09/07 07:25:21;;;;;;;5.30;2.97;;;24.30;46.90;;;;;;5215423;28;20250;-50
2022/09/07 07:27:51;;;;;;;9.20;3.30;;;24.90;46.00;;;;;;5219127;28;20445;-50
2022/09/07 07:30:22;;;;;;;12.27;4.50;;;25.50;45.00;;;;;;5217566;28;20492;-49
2022/09/07 07:32:52;;;;;;;13.07;3.90;;;26.20;43.90;;;;;;5215783;28;20226;-51
2022/09/07 07:35:23;;;;;;;6.90;3.57;;;26.90;42.50;;;;;;5221734;28;20558;-51
2022/09/07 07:37:54;;;;;;;5.33;3.30;;;27.10;42.20;;;;;;5219056;28;20187;-52
2022/09/07 07:40:25;;;;;;;5.23;3.60;;;27.50;41.60;;;;;;5224513;28;20732;-51
2022/09/07 07:42:56;;;;;;;6.87;3.07;;;27.70;41.40;;;;;;5216204;28;20438;-52
2022/09/07 07:45:26;;;;;;;13.27;3.67;;;28.30;40.80;;;;;;5227093;28;20687;-49
2022/09/07 07:47:57;;;;;;;13.20;3.67;;;29.00;39.50;;;;;;5219542;28;20191;-52
2022/09/07 07:50:27;;;;;;;3.53;2.83;;;29.40;38.80;;;;;;5221449;28;20203;-52
2022/09/07 07:52:58;;;;;;;4.67;3.00;;;29.70;37.90;;;;;;5217754;28;20313;-50
2022/09/07 07:55:29;;;;;;;6.00;3.37;;;29.80;38.20;;;;;;5212306;28;20613;-49
2022/09/07 07:58:00;;;;;;;5.50;3.47;;;30.00;37.70;;;;;;5212944;28;20202;-49
2022/09/07 08:00:30;;;;;;;6.10;3.53;;;29.90;37.30;;;;;;5212829;28;20473;-49
2022/09/07 08:03:01;;;;;;;2.70;2.50;;;29.30;38.30;;;;;;5219992;28;20183;-49
2022/09/07 08:05:35;;;;;;;3.53;2.83;;;28.00;39.90;;;;;;5221166;28;20207;-50
2022/09/07 08:08:05;;;;;;;11.07;3.70;;;26.40;42.90;;;;;;5211634;28;20282;-49
2022/09/07 08:10:37;;;;;;;5.93;3.47;;;24.80;45.90;;;;;;5217909;28;20532;-55
2022/09/07 08:13:09;;;;;;;4.93;3.93;;;23.60;48.80;;;;;;5219319;28;20586;-49
2022/09/07 08:15:43;;;;;;;3.97;2.60;;;23.40;49.90;;;;;;5224659;28;20447;-51
2022/09/07 08:18:15;;;;;;;4.20;3.90;;;24.00;49.40;;;;;;5223116;28;20812;-51
2022/09/07 08:20:46;;;;;;;3.53;3.23;;;24.70;48.40;;;;;;5223189;28;20473;-53
2022/09/07 08:23:19;;;;;;;4.70;3.47;;;24.80;47.80;;;;;;5216964;28;20437;-51
2022/09/07 08:25:53;;;;;;;4.33;3.60;;;24.30;48.60;;;;;;5220962;28;20725;-49
2022/09/07 08:28:29;;;;;;;5.60;3.73;;;23.60;50.00;;;;;;5222198;28;20429;-51
2022/09/07 08:31:06;;;;;;;8.33;4.17;;;23.20;51.10;;;;;;5216498;28;20809;-49
2022/09/07 08:33:38;;;;;;;14.40;4.60;;;23.10;51.50;;;;;;5213685;28;20715;-49
2022/09/07 08:36:14;;;;;;;5.60;4.30;;;22.70;52.30;;;;;;5213093;28;20438;-49
2022/09/07 08:38:45;;;;;;;5.63;4.67;;;22.50;52.70;;;;;;5214129;28;20450;-49
2022/09/07 08:41:41;;;;;;;9.73;4.13;;;22.20;53.20;;;;;;5225482;28;20522;-49
2022/09/07 08:44:17;;;;;;;8.00;4.70;;;21.90;54.20;;;;;;5218391;28;21088;-49
2022/09/07 08:46:58;;;;;;;9.87;3.97;;;21.80;54.50;;;;;;5224926;28;20520;-48
2022/09/07 08:49:57;;;;;;;12.50;4.80;;;21.50;55.10;;;;;;5224613;28;20435;-47
2022/09/07 08:52:39;;;;;;;12.40;4.00;;;21.30;55.70;;;;;;5213271;28;20444;-49
2022/09/07 08:55:40;;;;;;;7.77;4.10;;;21.40;56.30;;;;;;5221633;28;20437;-47
2022/09/07 08:58:25;;;;;;;7.70;4.20;;;21.50;56.20;;;;;;5203816;28;20460;-49
2022/09/07 09:00:57;;;;;;;4.13;3.67;;;21.30;56.60;;;;;;5212883;28;20469;-49
2022/09/07 09:03:32;;;;;;;5.10;4.60;;;21.20;57.20;;;;;;5210436;28;20437;-48
2022/09/07 09:06:10;;;;;;;12.73;4.23;;;21.10;57.60;;;;;;5218789;28;20614;-50
2022/09/07 09:08:43;;;;;;;4.97;4.17;;;21.30;57.60;;;;;;5213348;28;20945;-50
2022/09/07 09:11:37;;;;;;;8.00;4.20;;;21.50;57.50;;;;;;5214602;28;20507;-50
2022/09/07 09:14:26;;;;;;;4.43;3.73;;;21.80;56.80;;;;;;5214900;28;20430;-51
2022/09/07 09:17:18;;;;;;;11.73;4.63;;;21.90;56.20;;;;;;5221527;28;20426;-50
2022/09/07 09:20:00;;;;;;;5.43;4.50;;;21.80;56.50;;;;;;5201734;28;20589;-49
2022/09/07 09:22:31;;;;;;;4.07;3.80;;;21.90;56.70;;;;;;5220191;28;20440;-50
2022/09/07 09:25:40;;;;;;;14.33;5.60;;;22.00;56.80;;;;;;5233489;28;20458;-51
2022/09/07 09:28:11;;;;;;;9.10;4.87;;;22.20;56.20;;;;;;5174558;28;20188;-50
2022/09/07 09:30:42;;;;;;;5.90;3.97;;;22.20;56.10;;;;;;5187837;28;20478;-49
2022/09/07 09:33:14;;;;;;;4.20;3.90;;;22.10;56.50;;;;;;5196168;28;20444;-51
2022/09/07 09:35:50;;;;;;;6.47;4.00;;;22.00;56.80;;;;;;5217884;28;20215;-50
2022/09/07 09:38:33;;;;;;;7.97;4.83;;;22.00;56.80;;;;;;5219690;28;20438;-50
2022/09/07 09:41:07;;;;;;;5.33;4.43;;;21.90;57.20;;;;;;5232567;28;20515;-50
2022/09/07 09:43:50;;;;;;;4.30;3.70;;;21.90;57.20;;;;;;5214888;28;20444;-49
2022/09/07 09:46:32;;;;;;;10.70;4.50;;;22.10;57.40;;;;;;5223693;28;20473;-49
2022/09/07 09:49:21;;;;;;;5.23;4.73;;;22.10;57.30;;;;;;5217830;28;20512;-50
2022/09/07 09:51:58;;;;;;;11.57;5.20;;;22.20;57.40;;;;;;5216598;28;20437;-50
2022/09/07 09:54:35;;;;;;;18.03;4.60;;;22.30;57.30;;;;;;5215748;28;20592;-48
2022/09/07 09:57:05;;;;;;;5.90;4.70;;;22.30;57.20;;;;;;5216901;28;20520;-50
2022/09/07 09:59:36;;;;;;;11.50;4.67;;;22.30;57.50;;;;;;5218699;28;20710;-52
2022/09/07 10:02:28;;;;;;;14.60;5.17;;;22.40;57.50;;;;;;5221544;28;20714;-47
2022/09/07 10:04:59;;;;;;;8.00;5.03;;;22.60;57.60;;;;;;5212067;28;20199;-48
2022/09/07 10:07:31;;;;;;;7.67;4.57;;;22.50;57.30;;;;;;5214081;28;20484;-48
2022/09/07 10:10:02;;;;;;;10.50;5.03;;;22.50;57.50;;;;;;5213741;28;20196;-48
2022/09/07 10:12:35;;;;;;;5.57;4.50;;;22.50;57.60;;;;;;5214541;28;20479;-48
2022/09/07 10:15:07;;;;;;;13.93;6.00;;;22.60;57.80;;;;;;5210580;28;20442;-47
2022/09/07 10:17:42;;;;;;;27.53;5.50;;;22.70;57.80;;;;;;5215879;28;20458;-48
2022/09/07 10:20:15;;;;;;;4.40;4.00;;;22.80;57.70;;;;;;5230953;28;20464;-49
2022/09/07 10:22:52;;;;;;;10.13;5.50;;;23.00;58.00;;;;;;5217319;28;20925;-48
2022/09/07 10:25:27;;;;;;;7.50;5.10;;;23.10;58.00;;;;;;5211387;28;20487;-46
2022/09/07 10:28:08;;;;;;;7.63;4.77;;;23.20;57.90;;;;;;5210357;28;20421;-47
2022/09/07 10:30:59;;;;;;;5.00;4.43;;;23.30;57.90;;;;;;5214783;28;20588;-48
2022/09/07 10:33:45;;;;;;;9.57;5.73;;;23.40;58.00;;;;;;5208932;28;20749;-48
2022/09/07 10:36:51;;;;;;;7.33;4.77;;;23.60;57.70;;;;;;5207206;28;20984;-48
2022/09/07 10:39:26;;;;;;;6.10;5.37;;;23.70;57.90;;;;;;5217158;28;20934;-47
2022/09/07 10:42:27;;;;;;;10.37;5.70;;;23.60;57.90;;;;;;5229971;28;20421;-47
2022/09/07 10:45:10;;;;;;;7.70;5.13;;;23.50;57.90;;;;;;5197722;28;20476;-48
2022/09/07 10:47:59;;;;;;;9.73;5.30;;;23.60;58.00;;;;;;5215934;28;20933;-47
2022/09/07 10:50:49;;;;;;;6.20;5.17;;;23.60;58.10;;;;;;5220071;28;20454;-50
2022/09/07 10:53:59;;;;;;;5.53;4.93;;;23.80;58.20;;;;;;5213476;28;20495;-48
2022/09/07 10:56:38;;;;;;;6.20;5.30;;;24.00;57.70;;;;;;5197181;28;20426;-52
2022/09/07 10:59:53;;;;;;;12.73;5.97;;;24.10;57.60;;;;;;5215702;28;21007;-49
2022/09/07 11:02:32;;;;;;;11.97;4.80;;;24.10;57.70;;;;;;5217179;28;20544;-49
2022/09/07 11:05:18;;;;;;;7.03;5.13;;;24.10;57.70;;;;;;5219068;28;20469;-49
2022/09/07 11:08:00;;;;;;;8.63;5.27;;;24.20;57.60;;;;;;5217149;28;20449;-48
2022/09/07 11:10:37;;;;;;;4.90;4.57;;;24.30;57.50;;;;;;5215780;28;20541;-49
2022/09/07 11:13:14;;;;;;;8.63;5.40;;;24.30;57.00;;;;;;5222288;28;20553;-50
2022/09/07 11:15:49;;;;;;;6.80;5.20;;;24.40;57.40;;;;;;5223502;28;20522;-48
2022/09/07 11:18:34;;;;;;;5.47;4.83;;;24.50;57.50;;;;;;5219943;28;20822;-49
2022/09/07 11:21:12;;;;;;;6.37;5.07;;;24.60;57.60;;;;;;5210201;28;20457;-47
2022/09/07 11:23:51;;;;;;;9.23;5.10;;;24.60;57.80;;;;;;5215335;28;20441;-48
2022/09/07 11:26:40;;;;;;;5.03;4.67;;;24.70;57.10;;;;;;5217656;28;21022;-48
2022/09/07 11:29:18;;;;;;;7.30;4.80;;;24.60;57.10;;;;;;5223912;28;20436;-47
2022/09/07 11:31:58;;;;;;;10.30;5.33;;;24.60;57.40;;;;;;5226312;28;20857;-46
2022/09/07 11:34:34;;;;;;;8.53;5.10;;;24.70;57.30;;;;;;5225317;28;20442;-50
2022/09/07 11:37:33;;;;;;;4.70;4.40;;;24.80;57.80;;;;;;5220001;28;20557;-48
2022/09/07 11:40:30;;;;;;;5.23;4.70;;;24.90;57.40;;;;;;5227520;28;20507;-49
2022/09/07 11:43:04;;;;;;;5.00;4.67;;;25.10;57.30;;;;;;5216497;28;20437;-52
2022/09/07 11:45:53;;;;;;;5.53;5.03;;;25.10;57.20;;;;;;5214083;28;20952;-51
2022/09/07 11:48:35;;;;;;;7.33;4.83;;;25.20;57.10;;;;;;5223350;28;20441;-48
2022/09/07 11:51:21;;;;;;;7.80;5.30;;;25.30;57.10;;;;;;5224958;28;20445;-46
2022/09/07 11:54:00;;;;;;;5.47;4.97;;;25.30;57.20;;;;;;5224141;28;20421;-47
2022/09/07 11:56:35;;;;;;;8.83;4.70;;;25.40;57.20;;;;;;5227206;28;20462;-49
2022/09/07 11:59:17;;;;;;;7.57;4.50;;;25.40;57.10;;;;;;5219351;28;20466;-50
2022/09/07 12:02:12;;;;;;;7.43;5.60;;;25.60;57.10;;;;;;5218126;28;20442;-49
2022/09/07 12:04:48;;;;;;;8.53;4.80;;;25.60;57.00;;;;;;5225467;28;20469;-47
2022/09/07 12:07:39;;;;;;;5.80;5.20;;;25.90;57.20;;;;;;5232713;28;20437;-49
2022/09/07 12:10:47;;;;;;;4.93;4.53;;;26.10;56.70;;;;;;5217583;28;20511;-47
2022/09/07 12:13:44;;;;;;;7.70;4.30;;;26.20;56.80;;;;;;5224959;28;20453;-49
2022/09/07 12:16:50;;;;;;;6.67;5.63;;;26.40;56.50;;;;;;5225500;28;20445;-48
2022/09/07 12:19:23;;;;;;;6.67;5.37;;;26.30;56.30;;;;;;5238025;28;20443;-48
2022/09/07 12:22:00;;;;;;;7.33;6.10;;;26.20;56.30;;;;;;5225329;28;20442;-50
2022/09/07 12:24:34;;;;;;;19.23;5.50;;;26.10;56.60;;;;;;5223664;28;20469;-49
2022/09/07 12:27:30;;;;;;;4.50;4.20;;;25.90;56.80;;;;;;5224198;28;20432;-49
2022/09/07 12:30:01;;;;;;;10.80;5.83;;;25.90;57.10;;;;;;5218138;28;20508;-48
2022/09/07 12:32:47;;;;;;;10.53;5.03;;;25.90;57.50;;;;;;5218044;28;20942;-47
2022/09/07 12:35:32;;;;;;;5.60;5.07;;;25.90;57.60;;;;;;5224808;28;20187;-50
2022/09/07 12:38:16;;;;;;;5.83;5.33;;;26.10;57.70;;;;;;5218076;28;20831;-50
2022/09/07 12:41:03;;;;;;;7.40;5.00;;;26.50;57.20;;;;;;5220749;28;20803;-49
2022/09/07 12:43:35;;;;;;;6.30;5.70;;;26.50;56.70;;;;;;5223942;28;20441;-50
2022/09/07 12:46:39;;;;;;;8.27;5.90;;;26.30;56.80;;;;;;5224505;28;20465;-47
2022/09/07 12:49:39;;;;;;;6.00;5.60;;;25.90;57.40;;;;;;5223696;28;20474;-48
2022/09/07 12:52:28;;;;;;;4.90;4.50;;;25.60;58.30;;;;;;5221867;28;20836;-49
2022/09/07 12:55:20;;;;;;;11.53;5.37;;;25.40;58.70;;;;;;5214403;28;20503;-49
2022/09/07 12:58:04;;;;;;;5.40;4.90;;;25.30;59.10;;;;;;5214208;28;20945;-48
2022/09/07 13:00:54;;;;;;;7.00;5.10;;;25.20;59.70;;;;;;5228406;28;20483;-48
2022/09/07 13:03:55;;;;;;;6.57;5.80;;;25.20;59.60;;;;;;5218308;28;20472;-48
2022/09/07 13:06:47;;;;;;;13.70;5.70;;;25.20;59.70;;;;;;5217635;28;20472;-48
2022/09/07 13:09:23;;;;;;;16.00;6.00;;;25.20;59.70;;;;;;5219589;28;20440;-49
2022/09/07 13:11:54;;;;;;;6.77;6.07;;;25.20;60.00;;;;;;5220579;28;20474;-49
2022/09/07 13:14:27;;;;;;;9.13;6.10;;;25.10;59.90;;;;;;5218149;28;20532;-48
2022/09/07 13:17:33;;;;;;;5.73;5.23;;;25.00;60.30;;;;;;5223067;28;20195;-49
2022/09/07 13:20:08;;;;;;;20.03;6.93;;;25.00;60.30;;;;;;5224898;28;20526;-48
2022/09/07 13:22:39;;;;;;;13.60;7.20;;;25.10;60.50;;;;;;5216711;28;20528;-48
2022/09/07 13:25:25;;;;;;;5.63;5.10;;;25.10;60.50;;;;;;5219598;28;20461;-48
2022/09/07 13:28:00;;;;;;;9.20;5.37;;;25.10;60.00;;;;;;5219636;28;20802;-48
2022/09/07 13:31:14;;;;;;;6.47;5.87;;;25.00;60.00;;;;;;5218454;28;20548;-47
2022/09/07 13:33:52;;;;;;;9.13;5.90;;;25.00;60.30;;;;;;5218270;28;20512;-51
2022/09/07 13:36:38;;;;;;;23.47;6.40;;;25.00;60.60;;;;;;5220160;28;20477;-48